sensor_id;sensor_type;location;lat;lon;timestamp;pressure;altitude;pressure_sealevel;temperature;humidity
60244;BME280;46106;51.468;5.814;2023-06-04T00:02:15;101774.66;;;13.10;63.86
60244;BME280;46106;51.468;5.814;2023-06-04T00:04:40;101774.66;;;13.10;64.37
60244;BME280;46106;51.468;5.814;2023-06-04T00:07:06;101771.34;;;13.17;64.90
60244;BME280;46106;51.468;5.814;2023-06-04T00:09:31;101760.50;;;13.03;65.54
60244;BME280;46106;51.468;5.814;2023-06-04T00:11:57;101768.97;;;13.00;66.19
60244;BME280;46106;51.468;5.814;2023-06-04T00:14:23;101769.59;;;13.03;66.25
60244;BME280;46106;51.468;5.814;2023-06-04T00:16:48;101765.22;;;13.01;67.24
60244;BME280;46106;51.468;5.814;2023-06-04T00:19:14;101756.88;;;13.02;67.93
60244;BME280;46106;51.468;5.814;2023-06-04T00:21:40;101768.66;;;12.92;68.71
60244;BME280;46106;51.468;5.814;2023-06-04T00:24:06;101763.50;;;12.87;69.89
60244;BME280;46106;51.468;5.814;2023-06-04T00:26:31;101770.84;;;12.99;71.11
60244;BME280;46106;51.468;5.814;2023-06-04T00:28:57;101762.41;;;12.90;71.81
60244;BME280;46106;51.468;5.814;2023-06-04T00:31:22;101771.06;;;12.96;72.49
60244;BME280;46106;51.468;5.814;2023-06-04T00:33:49;101763.03;;;12.93;73.48
60244;BME280;46106;51.468;5.814;2023-06-04T00:36:14;101755.41;;;12.85;75.02
60244;BME280;46106;51.468;5.814;2023-06-04T00:38:40;101756.50;;;12.83;76.99
60244;BME280;46106;51.468;5.814;2023-06-04T00:41:05;101762.66;;;12.74;78.58
60244;BME280;46106;51.468;5.814;2023-06-04T00:43:31;101757.97;;;12.63;80.34
60244;BME280;46106;51.468;5.814;2023-06-04T00:46:01;101761.59;;;12.63;80.49
60244;BME280;46106;51.468;5.814;2023-06-04T00:48:27;101761.91;;;12.72;81.32
60244;BME280;46106;51.468;5.814;2023-06-04T00:50:53;101759.91;;;12.61;82.66
60244;BME280;46106;51.468;5.814;2023-06-04T00:53:21;101762.81;;;12.59;84.47
60244;BME280;46106;51.468;5.814;2023-06-04T00:55:48;101761.91;;;12.59;85.78
60244;BME280;46106;51.468;5.814;2023-06-04T00:58:13;101750.72;;;12.49;86.16
60244;BME280;46106;51.468;5.814;2023-06-04T01:00:41;101765.88;;;12.55;86.81
60244;BME280;46106;51.468;5.814;2023-06-04T01:03:18;101757.00;;;12.51;87.71
60244;BME280;46106;51.468;5.814;2023-06-04T01:05:57;101766.44;;;12.47;88.52
60244;BME280;46106;51.468;5.814;2023-06-04T01:08:26;101762.59;;;12.49;90.00
60244;BME280;46106;51.468;5.814;2023-06-04T01:10:56;101761.50;;;12.39;90.70
60244;BME280;46106;51.468;5.814;2023-06-04T01:13:22;101761.59;;;12.38;91.31
60244;BME280;46106;51.468;5.814;2023-06-04T01:15:47;101757.22;;;12.35;92.65
60244;BME280;46106;51.468;5.814;2023-06-04T01:18:25;101757.00;;;12.38;94.07
60244;BME280;46106;51.468;5.814;2023-06-04T01:21:03;101757.44;;;12.32;94.64
60244;BME280;46106;51.468;5.814;2023-06-04T01:23:40;101761.38;;;12.28;94.95
60244;BME280;46106;51.468;5.814;2023-06-04T01:26:11;101761.50;;;12.26;96.40
60244;BME280;46106;51.468;5.814;2023-06-04T01:28:37;101759.09;;;12.22;97.12
60244;BME280;46106;51.468;5.814;2023-06-04T01:31:04;101754.16;;;12.14;97.72
60244;BME280;46106;51.468;5.814;2023-06-04T01:33:33;101763.03;;;12.18;97.81
60244;BME280;46106;51.468;5.814;2023-06-04T01:35:58;101764.91;;;12.17;98.97
60244;BME280;46106;51.468;5.814;2023-06-04T01:38:24;101763.03;;;12.18;99.00
60244;BME280;46106;51.468;5.814;2023-06-04T01:40:49;101763.81;;;12.20;99.05
60244;BME280;46106;51.468;5.814;2023-06-04T01:43:16;101763.38;;;12.13;99.18
60244;BME280;46106;51.468;5.814;2023-06-04T01:45:41;101760.84;;;12.10;100.00
60244;BME280;46106;51.468;5.814;2023-06-04T01:48:07;101752.25;;;12.02;100.00
60244;BME280;46106;51.468;5.814;2023-06-04T01:50:33;101747.56;;;12.04;100.00
60244;BME280;46106;51.468;5.814;2023-06-04T01:52:59;101754.78;;;11.92;100.00
60244;BME280;46106;51.468;5.814;2023-06-04T01:55:24;101749.28;;;11.92;100.00
60244;BME280;46106;51.468;5.814;2023-06-04T01:57:51;101747.72;;;11.88;100.00
60244;BME280;46106;51.468;5.814;2023-06-04T02:00:17;101751.16;;;11.91;100.00
60244;BME280;46106;51.468;5.814;2023-06-04T02:02:44;101753.97;;;11.90;100.00
60244;BME280;46106;51.468;5.814;2023-06-04T02:05:11;101755.97;;;11.88;100.00
60244;BME280;46106;51.468;5.814;2023-06-04T02:07:44;101756.28;;;11.83;100.00
60244;BME280;46106;51.468;5.814;2023-06-04T02:10:16;101762.09;;;11.78;100.00
60244;BME280;46106;51.468;5.814;2023-06-04T02:15:20;101764.69;;;11.67;100.00
60244;BME280;46106;51.468;5.814;2023-06-04T02:17:45;101763.19;;;11.76;100.00
60244;BME280;46106;51.468;5.814;2023-06-04T02:20:12;101753.06;;;11.64;100.00
60244;BME280;46106;51.468;5.814;2023-06-04T02:22:38;101765.59;;;11.68;100.00
60244;BME280;46106;51.468;5.814;2023-06-04T02:25:04;101762.72;;;11.56;100.00
60244;BME280;46106;51.468;5.814;2023-06-04T02:27:30;101755.44;;;11.55;100.00
60244;BME280;46106;51.468;5.814;2023-06-04T02:29:56;101755.13;;;11.60;100.00
60244;BME280;46106;51.468;5.814;2023-06-04T02:32:21;101765.00;;;11.50;100.00
60244;BME280;46106;51.468;5.814;2023-06-04T02:34:47;101760.28;;;11.52;100.00
60244;BME280;46106;51.468;5.814;2023-06-04T02:37:14;101769.16;;;11.55;100.00
60244;BME280;46106;51.468;5.814;2023-06-04T02:39:39;101765.50;;;11.42;100.00
60244;BME280;46106;51.468;5.814;2023-06-04T02:42:05;101769.31;;;11.39;100.00
60244;BME280;46106;51.468;5.814;2023-06-04T02:44:32;101770.44;;;11.37;100.00
60244;BME280;46106;51.468;5.814;2023-06-04T02:46:57;101768.47;;;11.39;100.00
60244;BME280;46106;51.468;5.814;2023-06-04T02:49:23;101765.16;;;11.34;100.00
60244;BME280;46106;51.468;5.814;2023-06-04T02:51:48;101764.88;;;11.24;100.00
60244;BME280;46106;51.468;5.814;2023-06-04T02:54:15;101760.91;;;11.15;100.00
60244;BME280;46106;51.468;5.814;2023-06-04T02:56:40;101762.28;;;11.08;100.00
60244;BME280;46106;51.468;5.814;2023-06-04T02:59:06;101754.78;;;11.12;100.00
60244;BME280;46106;51.468;5.814;2023-06-04T03:01:34;101757.50;;;11.12;100.00
60244;BME280;46106;51.468;5.814;2023-06-04T03:04:00;101761.88;;;11.14;100.00
60244;BME280;46106;51.468;5.814;2023-06-04T03:06:29;101756.31;;;11.16;100.00
60244;BME280;46106;51.468;5.814;2023-06-04T03:08:54;101768.97;;;11.04;100.00
60244;BME280;46106;51.468;5.814;2023-06-04T03:11:21;101774.47;;;11.04;100.00
60244;BME280;46106;51.468;5.814;2023-06-04T03:13:47;101767.31;;;11.01;100.00
60244;BME280;46106;51.468;5.814;2023-06-04T03:16:13;101776.00;;;11.08;100.00
60244;BME280;46106;51.468;5.814;2023-06-04T03:18:45;101767.31;;;11.01;100.00
60244;BME280;46106;51.468;5.814;2023-06-04T03:21:10;101765.88;;;10.96;100.00
60244;BME280;46106;51.468;5.814;2023-06-04T03:23:39;101763.22;;;10.94;100.00
60244;BME280;46106;51.468;5.814;2023-06-04T03:26:05;101758.63;;;10.95;100.00
60244;BME280;46106;51.468;5.814;2023-06-04T03:28:32;101764.72;;;10.85;100.00
60244;BME280;46106;51.468;5.814;2023-06-04T03:30:58;101760.78;;;10.90;100.00
60244;BME280;46106;51.468;5.814;2023-06-04T03:33:24;101763.53;;;10.90;100.00
60244;BME280;46106;51.468;5.814;2023-06-04T03:35:51;101765.59;;;10.86;100.00
60244;BME280;46106;51.468;5.814;2023-06-04T03:38:17;101769.78;;;10.92;100.00
60244;BME280;46106;51.468;5.814;2023-06-04T03:40:43;101771.28;;;10.83;100.00
60244;BME280;46106;51.468;5.814;2023-06-04T03:43:09;101766.75;;;10.82;100.00
60244;BME280;46106;51.468;5.814;2023-06-04T03:45:35;101763.53;;;10.75;100.00
60244;BME280;46106;51.468;5.814;2023-06-04T03:48:01;101767.84;;;10.79;100.00
60244;BME280;46106;51.468;5.814;2023-06-04T03:50:27;101766.94;;;10.79;100.00
60244;BME280;46106;51.468;5.814;2023-06-04T03:52:53;101770.78;;;10.76;100.00
60244;BME280;46106;51.468;5.814;2023-06-04T03:55:18;101774.50;;;10.75;100.00
60244;BME280;46106;51.468;5.814;2023-06-04T03:57:44;101764.44;;;10.76;100.00
60244;BME280;46106;51.468;5.814;2023-06-04T04:00:10;101768.34;;;10.72;100.00
60244;BME280;46106;51.468;5.814;2023-06-04T04:02:39;101763.16;;;10.67;100.00
60244;BME280;46106;51.468;5.814;2023-06-04T04:05:05;101774.97;;;10.82;100.00
60244;BME280;46106;51.468;5.814;2023-06-04T04:07:31;101773.91;;;10.84;100.00
60244;BME280;46106;51.468;5.814;2023-06-04T04:09:56;101772.72;;;10.89;100.00
60244;BME280;46106;51.468;5.814;2023-06-04T04:12:22;101775.97;;;10.81;100.00
60244;BME280;46106;51.468;5.814;2023-06-04T04:14:47;101775.31;;;10.77;100.00
60244;BME280;46106;51.468;5.814;2023-06-04T04:17:16;101776.66;;;10.84;100.00
60244;BME280;46106;51.468;5.814;2023-06-04T04:19:41;101772.03;;;10.85;100.00
60244;BME280;46106;51.468;5.814;2023-06-04T04:22:07;101783.38;;;10.93;100.00
60244;BME280;46106;51.468;5.814;2023-06-04T04:24:34;101776.44;;;10.88;100.00
60244;BME280;46106;51.468;5.814;2023-06-04T04:27:02;101785.25;;;10.93;100.00
60244;BME280;46106;51.468;5.814;2023-06-04T04:29:29;101782.22;;;10.97;100.00
60244;BME280;46106;51.468;5.814;2023-06-04T04:31:58;101780.53;;;10.95;100.00
60244;BME280;46106;51.468;5.814;2023-06-04T04:34:27;101787.16;;;11.05;100.00
60244;BME280;46106;51.468;5.814;2023-06-04T04:36:53;101785.22;;;11.07;100.00
60244;BME280;46106;51.468;5.814;2023-06-04T04:39:22;101782.84;;;11.15;100.00
60244;BME280;46106;51.468;5.814;2023-06-04T04:41:48;101781.19;;;11.13;100.00
60244;BME280;46106;51.468;5.814;2023-06-04T04:44:14;101789.66;;;11.22;100.00
60244;BME280;46106;51.468;5.814;2023-06-04T04:46:39;101785.97;;;11.24;100.00
60244;BME280;46106;51.468;5.814;2023-06-04T04:49:05;101778.59;;;11.24;100.00
60244;BME280;46106;51.468;5.814;2023-06-04T04:51:30;101783.78;;;11.29;100.00
60244;BME280;46106;51.468;5.814;2023-06-04T04:53:56;101783.16;;;11.38;100.00
60244;BME280;46106;51.468;5.814;2023-06-04T04:56:21;101781.97;;;11.42;100.00
60244;BME280;46106;51.468;5.814;2023-06-04T04:58:48;101777.81;;;11.49;100.00
60244;BME280;46106;51.468;5.814;2023-06-04T05:01:14;101775.75;;;11.53;100.00
60244;BME280;46106;51.468;5.814;2023-06-04T05:03:39;101783.41;;;11.48;100.00
60244;BME280;46106;51.468;5.814;2023-06-04T05:06:05;101778.50;;;11.66;100.00
60244;BME280;46106;51.468;5.814;2023-06-04T05:08:30;101774.91;;;11.65;100.00
60244;BME280;46106;51.468;5.814;2023-06-04T05:10:56;101776.00;;;11.75;100.00
60244;BME280;46106;51.468;5.814;2023-06-04T05:13:21;101777.38;;;11.83;100.00
60244;BME280;46106;51.468;5.814;2023-06-04T05:15:48;101776.16;;;11.87;100.00
60244;BME280;46106;51.468;5.814;2023-06-04T05:18:18;101790.06;;;12.11;100.00
60244;BME280;46106;51.468;5.814;2023-06-04T05:20:46;101785.56;;;12.23;100.00
60244;BME280;46106;51.468;5.814;2023-06-04T05:23:11;101786.22;;;12.52;100.00
60244;BME280;46106;51.468;5.814;2023-06-04T05:25:38;101795.41;;;12.77;100.00
60244;BME280;46106;51.468;5.814;2023-06-04T05:28:03;101786.94;;;12.80;100.00
60244;BME280;46106;51.468;5.814;2023-06-04T05:30:32;101791.16;;;13.10;100.00
60244;BME280;46106;51.468;5.814;2023-06-04T05:32:59;101793.38;;;13.41;100.00
60244;BME280;46106;51.468;5.814;2023-06-04T05:35:24;101798.47;;;13.59;100.00
60244;BME280;46106;51.468;5.814;2023-06-04T05:37:50;101795.00;;;13.68;98.28
60244;BME280;46106;51.468;5.814;2023-06-04T05:40:22;101792.91;;;14.19;94.76
60244;BME280;46106;51.468;5.814;2023-06-04T05:42:48;101804.25;;;14.49;92.92
60244;BME280;46106;51.468;5.814;2023-06-04T05:45:13;101793.00;;;14.75;92.91
60244;BME280;46106;51.468;5.814;2023-06-04T05:47:39;101792.25;;;14.84;91.57
60244;BME280;46106;51.468;5.814;2023-06-04T05:50:05;101793.69;;;15.22;87.85
60244;BME280;46106;51.468;5.814;2023-06-04T05:52:32;101775.44;;;15.42;84.34
60244;BME280;46106;51.468;5.814;2023-06-04T05:54:58;101781.84;;;16.08;79.78
60244;BME280;46106;51.468;5.814;2023-06-04T05:57:24;101786.94;;;15.91;79.81
60244;BME280;46106;51.468;5.814;2023-06-04T05:59:50;101787.16;;;15.67;80.90
60244;BME280;46106;51.468;5.814;2023-06-04T06:02:15;101793.91;;;15.86;81.27
60244;BME280;46106;51.468;5.814;2023-06-04T06:04:41;101800.84;;;16.43;75.93
60244;BME280;46106;51.468;5.814;2023-06-04T06:07:07;101798.75;;;16.35;76.29
60244;BME280;46106;51.468;5.814;2023-06-04T06:09:32;101797.38;;;16.82;75.62
60244;BME280;46106;51.468;5.814;2023-06-04T06:11:58;101800.75;;;17.26;72.14
60244;BME280;46106;51.468;5.814;2023-06-04T06:14:23;101801.72;;;16.75;72.45
60244;BME280;46106;51.468;5.814;2023-06-04T06:16:49;101802.84;;;16.93;69.23
60244;BME280;46106;51.468;5.814;2023-06-04T06:19:15;101806.78;;;17.51;68.70
60244;BME280;46106;51.468;5.814;2023-06-04T06:21:40;101806.09;;;17.78;66.90
60244;BME280;46106;51.468;5.814;2023-06-04T06:24:06;101810.19;;;18.13;62.84
60244;BME280;46106;51.468;5.814;2023-06-04T06:26:31;101806.38;;;18.14;61.86
60244;BME280;46106;51.468;5.814;2023-06-04T06:28:57;101802.88;;;18.69;58.93
60244;BME280;46106;51.468;5.814;2023-06-04T06:31:22;101816.97;;;18.48;58.25
60244;BME280;46106;51.468;5.814;2023-06-04T06:33:48;101814.53;;;18.35;59.63
60244;BME280;46106;51.468;5.814;2023-06-04T06:36:13;101817.41;;;18.53;58.28
60244;BME280;46106;51.468;5.814;2023-06-04T06:38:39;101822.84;;;18.92;55.80
60244;BME280;46106;51.468;5.814;2023-06-04T06:41:05;101822.34;;;19.06;55.24
60244;BME280;46106;51.468;5.814;2023-06-04T06:43:31;101816.00;;;18.86;56.92
60244;BME280;46106;51.468;5.814;2023-06-04T06:45:57;101830.16;;;18.93;56.45
60244;BME280;46106;51.468;5.814;2023-06-04T06:48:23;101807.63;;;18.96;55.61
60244;BME280;46106;51.468;5.814;2023-06-04T06:50:48;101814.09;;;18.87;54.21
60244;BME280;46106;51.468;5.814;2023-06-04T06:53:14;101820.00;;;19.57;50.27
60244;BME280;46106;51.468;5.814;2023-06-04T06:55:39;101822.50;;;19.96;50.00
60244;BME280;46106;51.468;5.814;2023-06-04T06:58:05;101828.06;;;20.14;48.76
60244;BME280;46106;51.468;5.814;2023-06-04T07:00:30;101825.84;;;20.44;46.89
60244;BME280;46106;51.468;5.814;2023-06-04T07:02:56;101831.72;;;20.41;48.54
60244;BME280;46106;51.468;5.814;2023-06-04T07:05:21;101832.94;;;20.83;47.19
60244;BME280;46106;51.468;5.814;2023-06-04T07:07:47;101834.41;;;20.51;46.31
60244;BME280;46106;51.468;5.814;2023-06-04T07:10:13;101830.16;;;20.83;46.10
60244;BME280;46106;51.468;5.814;2023-06-04T07:12:39;101838.78;;;20.53;47.41
60244;BME280;46106;51.468;5.814;2023-06-04T07:15:06;101840.88;;;20.51;47.82
60244;BME280;46106;51.468;5.814;2023-06-04T07:17:32;101834.75;;;21.00;46.71
60244;BME280;46106;51.468;5.814;2023-06-04T07:19:57;101845.53;;;21.89;44.49
60244;BME280;46106;51.468;5.814;2023-06-04T07:22:23;101832.63;;;21.71;45.53
60244;BME280;46106;51.468;5.814;2023-06-04T07:24:49;101835.44;;;21.96;42.75
60244;BME280;46106;51.468;5.814;2023-06-04T07:27:15;101833.88;;;22.01;42.96
60244;BME280;46106;51.468;5.814;2023-06-04T07:29:43;101827.75;;;22.64;41.25
60244;BME280;46106;51.468;5.814;2023-06-04T07:32:09;101838.06;;;21.97;42.25
60244;BME280;46106;51.468;5.814;2023-06-04T07:34:34;101839.78;;;21.98;43.06
60244;BME280;46106;51.468;5.814;2023-06-04T07:37:02;101837.91;;;22.48;41.79
60244;BME280;46106;51.468;5.814;2023-06-04T07:39:28;101819.81;;;23.08;40.91
60244;BME280;46106;51.468;5.814;2023-06-04T07:41:53;101838.72;;;21.83;41.84
60244;BME280;46106;51.468;5.814;2023-06-04T07:44:19;101835.19;;;22.96;40.23
60244;BME280;46106;51.468;5.814;2023-06-04T07:46:44;101846.53;;;23.03;40.84
60244;BME280;46106;51.468;5.814;2023-06-04T07:49:10;101828.66;;;23.28;39.21
60244;BME280;46106;51.468;5.814;2023-06-04T07:51:35;101830.78;;;23.49;38.16
60244;BME280;46106;51.468;5.814;2023-06-04T07:54:02;101837.53;;;23.32;40.16
60244;BME280;46106;51.468;5.814;2023-06-04T07:56:28;101835.25;;;23.36;39.89
60244;BME280;46106;51.468;5.814;2023-06-04T07:58:54;101840.03;;;23.19;39.39
60244;BME280;46106;51.468;5.814;2023-06-04T08:01:19;101827.28;;;23.16;39.10
60244;BME280;46106;51.468;5.814;2023-06-04T08:03:45;101825.88;;;23.60;38.17
60244;BME280;46106;51.468;5.814;2023-06-04T08:06:11;101830.13;;;24.02;38.33
60244;BME280;46106;51.468;5.814;2023-06-04T08:08:36;101822.91;;;24.31;36.09
60244;BME280;46106;51.468;5.814;2023-06-04T08:11:02;101846.44;;;23.98;36.33
60244;BME280;46106;51.468;5.814;2023-06-04T08:13:28;101837.69;;;23.70;38.42
60244;BME280;46106;51.468;5.814;2023-06-04T08:15:53;101837.47;;;24.03;37.69
60244;BME280;46106;51.468;5.814;2023-06-04T08:18:19;101839.94;;;23.75;36.63
60244;BME280;46106;51.468;5.814;2023-06-04T08:20:44;101829.94;;;24.03;37.41
60244;BME280;46106;51.468;5.814;2023-06-04T08:23:10;101832.00;;;24.48;36.51
60244;BME280;46106;51.468;5.814;2023-06-04T08:25:36;101843.03;;;24.49;36.13
60244;BME280;46106;51.468;5.814;2023-06-04T08:30:37;101830.47;;;24.98;35.01
60244;BME280;46106;51.468;5.814;2023-06-04T08:33:03;101842.63;;;25.20;34.88
60244;BME280;46106;51.468;5.814;2023-06-04T08:35:28;101826.00;;;24.59;35.83
60244;BME280;46106;51.468;5.814;2023-06-04T08:37:53;101822.34;;;25.33;34.73
60244;BME280;46106;51.468;5.814;2023-06-04T08:40:19;101824.66;;;25.14;33.54
60244;BME280;46106;51.468;5.814;2023-06-04T08:42:45;101821.88;;;25.14;33.50
60244;BME280;46106;51.468;5.814;2023-06-04T08:45:13;101834.63;;;25.17;33.14
60244;BME280;46106;51.468;5.814;2023-06-04T08:47:44;101838.03;;;24.98;32.71
60244;BME280;46106;51.468;5.814;2023-06-04T08:50:16;101843.38;;;25.59;31.15
60244;BME280;46106;51.468;5.814;2023-06-04T08:52:45;101848.34;;;25.57;30.23
60244;BME280;46106;51.468;5.814;2023-06-04T08:55:11;101849.31;;;25.85;31.08
60244;BME280;46106;51.468;5.814;2023-06-04T09:02:49;101850.78;;;25.30;31.80
60244;BME280;46106;51.468;5.814;2023-06-04T09:10:26;101827.38;;;25.23;30.51
60244;BME280;46106;51.468;5.814;2023-06-04T09:12:56;101850.16;;;25.49;27.73
60244;BME280;46106;51.468;5.814;2023-06-04T09:15:23;101860.03;;;25.60;26.48
60244;BME280;46106;51.468;5.814;2023-06-04T09:22:59;101855.53;;;25.66;26.81
60244;BME280;46106;51.468;5.814;2023-06-04T09:25:26;101855.81;;;25.86;26.81
60244;BME280;46106;51.468;5.814;2023-06-04T09:27:56;101862.53;;;25.92;27.85
60244;BME280;46106;51.468;5.814;2023-06-04T09:33:09;101861.13;;;26.17;27.38
60244;BME280;46106;51.468;5.814;2023-06-04T09:40:45;101843.88;;;25.84;30.13
60244;BME280;46106;51.468;5.814;2023-06-04T09:43:21;101861.13;;;25.81;28.63
60244;BME280;46106;51.468;5.814;2023-06-04T09:45:47;101855.31;;;26.19;26.92
60244;BME280;46106;51.468;5.814;2023-06-04T09:50:48;101849.94;;;25.66;26.97
60244;BME280;46106;51.468;5.814;2023-06-04T09:53:18;101842.25;;;25.38;27.82
60244;BME280;46106;51.468;5.814;2023-06-04T09:58:27;101826.22;;;25.47;27.40
60244;BME280;46106;51.468;5.814;2023-06-04T10:00:57;101848.44;;;25.85;27.23
60244;BME280;46106;51.468;5.814;2023-06-04T10:03:30;101852.81;;;25.88;28.25
60244;BME280;46106;51.468;5.814;2023-06-04T10:08:33;101864.00;;;26.24;27.80
60244;BME280;46106;51.468;5.814;2023-06-04T10:11:00;101854.28;;;25.68;28.80
60244;BME280;46106;51.468;5.814;2023-06-04T10:13:51;101854.72;;;25.87;27.91
60244;BME280;46106;51.468;5.814;2023-06-04T10:16:13;101850.38;;;25.84;27.57
60244;BME280;46106;51.468;5.814;2023-06-04T10:18:39;101846.97;;;25.89;28.68
60244;BME280;46106;51.468;5.814;2023-06-04T10:21:06;101852.75;;;25.66;28.27
60244;BME280;46106;51.468;5.814;2023-06-04T10:23:33;101834.03;;;25.52;28.39
60244;BME280;46106;51.468;5.814;2023-06-04T10:26:01;101855.06;;;25.62;27.95
60244;BME280;46106;51.468;5.814;2023-06-04T10:28:27;101831.25;;;25.37;27.67
60244;BME280;46106;51.468;5.814;2023-06-04T10:30:53;101845.38;;;25.80;28.04
60244;BME280;46106;51.468;5.814;2023-06-04T10:33:20;101844.16;;;25.53;29.08
60244;BME280;46106;51.468;5.814;2023-06-04T10:35:50;101841.59;;;25.73;29.19
60244;BME280;46106;51.468;5.814;2023-06-04T10:38:16;101838.06;;;25.85;29.09
60244;BME280;46106;51.468;5.814;2023-06-04T10:40:45;101842.50;;;25.95;27.48
60244;BME280;46106;51.468;5.814;2023-06-04T10:43:12;101846.47;;;25.64;28.30
60244;BME280;46106;51.468;5.814;2023-06-04T10:45:39;101842.69;;;25.72;28.84
60244;BME280;46106;51.468;5.814;2023-06-04T10:48:09;101838.13;;;26.29;28.64
60244;BME280;46106;51.468;5.814;2023-06-04T10:50:50;101837.06;;;25.35;29.03
60244;BME280;46106;51.468;5.814;2023-06-04T10:53:17;101835.91;;;25.29;28.34
60244;BME280;46106;51.468;5.814;2023-06-04T10:55:45;101836.66;;;25.08;28.66
60244;BME280;46106;51.468;5.814;2023-06-04T10:58:11;101838.06;;;25.64;28.96
60244;BME280;46106;51.468;5.814;2023-06-04T11:00:37;101830.56;;;25.86;28.54
60244;BME280;46106;51.468;5.814;2023-06-04T11:03:05;101846.25;;;26.23;29.50
60244;BME280;46106;51.468;5.814;2023-06-04T11:05:39;101852.31;;;25.84;28.71
60244;BME280;46106;51.468;5.814;2023-06-04T11:08:06;101838.25;;;25.62;28.52
60244;BME280;46106;51.468;5.814;2023-06-04T11:10:37;101833.75;;;25.31;28.50
60244;BME280;46106;51.468;5.814;2023-06-04T11:13:03;101828.59;;;25.20;29.39
60244;BME280;46106;51.468;5.814;2023-06-04T11:15:45;101824.38;;;25.09;28.95
60244;BME280;46106;51.468;5.814;2023-06-04T11:18:16;101837.84;;;25.29;28.60
60244;BME280;46106;51.468;5.814;2023-06-04T11:20:46;101830.38;;;25.73;28.97
60244;BME280;46106;51.468;5.814;2023-06-04T11:23:13;101814.31;;;25.81;28.97
60244;BME280;46106;51.468;5.814;2023-06-04T11:25:39;101819.78;;;25.90;29.49
60244;BME280;46106;51.468;5.814;2023-06-04T11:28:06;101824.31;;;26.06;28.61
60244;BME280;46106;51.468;5.814;2023-06-04T11:30:31;101819.16;;;25.73;28.46
60244;BME280;46106;51.468;5.814;2023-06-04T11:33:04;101810.97;;;25.93;29.57
60244;BME280;46106;51.468;5.814;2023-06-04T11:35:30;101821.94;;;25.88;28.02
60244;BME280;46106;51.468;5.814;2023-06-04T11:37:57;101812.31;;;25.39;29.34
60244;BME280;46106;51.468;5.814;2023-06-04T11:40:23;101819.50;;;25.48;28.09
60244;BME280;46106;51.468;5.814;2023-06-04T11:42:49;101810.28;;;25.69;28.50
60244;BME280;46106;51.468;5.814;2023-06-04T11:45:20;101816.63;;;25.41;26.72
60244;BME280;46106;51.468;5.814;2023-06-04T11:47:53;101807.53;;;25.24;27.99
60244;BME280;46106;51.468;5.814;2023-06-04T11:50:21;101809.09;;;25.42;27.10
60244;BME280;46106;51.468;5.814;2023-06-04T11:52:47;101806.66;;;25.54;29.52
60244;BME280;46106;51.468;5.814;2023-06-04T11:55:14;101803.94;;;25.60;29.12
60244;BME280;46106;51.468;5.814;2023-06-04T11:57:40;101812.16;;;25.62;28.54
60244;BME280;46106;51.468;5.814;2023-06-04T12:00:06;101812.69;;;25.21;28.83
60244;BME280;46106;51.468;5.814;2023-06-04T12:02:48;101809.78;;;25.14;29.63
60244;BME280;46106;51.468;5.814;2023-06-04T12:05:16;101785.72;;;25.05;29.09
60244;BME280;46106;51.468;5.814;2023-06-04T12:07:44;101794.59;;;25.08;29.28
60244;BME280;46106;51.468;5.814;2023-06-04T12:10:10;101796.94;;;24.90;28.30
60244;BME280;46106;51.468;5.814;2023-06-04T12:12:39;101792.59;;;24.72;29.23
60244;BME280;46106;51.468;5.814;2023-06-04T12:15:06;101800.41;;;24.77;29.60
60244;BME280;46106;51.468;5.814;2023-06-04T12:17:32;101786.47;;;25.13;30.33
60244;BME280;46106;51.468;5.814;2023-06-04T12:19:58;101784.38;;;25.01;28.37
60244;BME280;46106;51.468;5.814;2023-06-04T12:22:25;101795.97;;;24.98;28.91
60244;BME280;46106;51.468;5.814;2023-06-04T12:24:53;101797.50;;;25.00;28.75
60244;BME280;46106;51.468;5.814;2023-06-04T12:27:20;101790.44;;;25.19;29.07
60244;BME280;46106;51.468;5.814;2023-06-04T12:29:58;101793.28;;;25.56;29.92
60244;BME280;46106;51.468;5.814;2023-06-04T12:32:27;101800.19;;;25.23;29.12
60244;BME280;46106;51.468;5.814;2023-06-04T12:34:54;101782.13;;;25.26;30.50
60244;BME280;46106;51.468;5.814;2023-06-04T12:37:21;101782.44;;;25.31;29.22
60244;BME280;46106;51.468;5.814;2023-06-04T12:39:50;101775.56;;;25.19;29.09
60244;BME280;46106;51.468;5.814;2023-06-04T12:42:17;101788.44;;;25.28;28.54
60244;BME280;46106;51.468;5.814;2023-06-04T12:44:44;101800.41;;;25.07;29.56
60244;BME280;46106;51.468;5.814;2023-06-04T12:47:10;101795.91;;;24.91;29.30
60244;BME280;46106;51.468;5.814;2023-06-04T12:49:37;101775.50;;;25.27;30.21
60244;BME280;46106;51.468;5.814;2023-06-04T12:52:03;101781.25;;;25.25;29.78
60244;BME280;46106;51.468;5.814;2023-06-04T12:54:28;101776.16;;;25.14;29.96
60244;BME280;46106;51.468;5.814;2023-06-04T12:56:54;101776.75;;;25.09;28.80
60244;BME280;46106;51.468;5.814;2023-06-04T12:59:22;101766.50;;;24.87;29.71
60244;BME280;46106;51.468;5.814;2023-06-04T13:01:47;101772.78;;;24.74;30.07
60244;BME280;46106;51.468;5.814;2023-06-04T13:04:13;101778.56;;;24.87;29.96
60244;BME280;46106;51.468;5.814;2023-06-04T13:06:38;101783.78;;;24.61;30.37
60244;BME280;46106;51.468;5.814;2023-06-04T13:09:05;101779.09;;;24.76;31.04
60244;BME280;46106;51.468;5.814;2023-06-04T13:11:43;101767.03;;;24.37;30.94
60244;BME280;46106;51.468;5.814;2023-06-04T13:14:09;101764.66;;;24.64;31.17
60244;BME280;46106;51.468;5.814;2023-06-04T13:16:35;101754.53;;;24.78;31.44
60244;BME280;46106;51.468;5.814;2023-06-04T13:19:01;101779.75;;;24.78;30.48
60244;BME280;46106;51.468;5.814;2023-06-04T13:21:27;101771.81;;;24.97;30.46
60244;BME280;46106;51.468;5.814;2023-06-04T13:23:53;101772.03;;;24.80;30.70